Time;durP1;ratioP1;P1;durP2;ratioP2;P2;SDS_P1;SDS_P2;PMS_P1;PMS_P2;Temp;Humidity;BMP_temperature;BMP_pressure;BME280_temperature;BME280_humidity;BME280_pressure;Samples;Min_cycle;Max_cycle;Signal;HPM_P1;HPM_P2
2022/10/07 00:00:43;;;;;;;;;;;;;;;;;;4915812;29;19923;-79
2022/10/07 00:03:08;;;;;;;;;;;;;;;;;;4915159;29;19915;-77
2022/10/07 00:05:34;;;;;;;;;;;;;;;;;;4905284;29;20005;-77
2022/10/07 00:07:59;;;;;;;;;;;;;;;;;;4936772;29;19918;-77
2022/10/07 00:10:26;;;;;;;;;;;;;;;;;;4926305;29;19919;-89
2022/10/07 00:12:51;;;;;;;;;;;;;;;;;;4898837;29;19915;-90
2022/10/07 00:15:17;;;;;;;;;;;;;;;;;;4917110;29;19922;-89
2022/10/07 00:17:43;;;;;;;;;;;;;;;;;;4919923;29;19919;-90
2022/10/07 00:20:09;;;;;;;;;;;;;;;;;;4904384;29;19915;-87
2022/10/07 00:22:34;;;;;;;;;;;;;;;;;;4922280;29;19915;-90
2022/10/07 00:25:00;;;;;;;;;;;;;;;;;;4927300;29;19967;-89
2022/10/07 00:27:25;;;;;;;;;;;;;;;;;;4928614;29;19915;-90
2022/10/07 00:29:51;;;;;;;;;;;;;;;;;;4887559;29;20299;-88
2022/10/07 00:32:17;;;;;;;;;;;;;;;;;;4906257;29;19915;-91
2022/10/07 00:34:42;;;;;;;;;;;;;;;;;;4904340;29;20020;-90
2022/10/07 00:37:07;;;;;;;;;;;;;;;;;;4891411;29;20366;-91
2022/10/07 00:39:33;;;;;;;;;;;;;;;;;;4901440;29;19919;-91
2022/10/07 00:41:58;;;;;;;;;;;;;;;;;;4938600;29;19950;-91
2022/10/07 00:44:24;;;;;;;;;;;;;;;;;;4901594;29;19914;-77
2022/10/07 00:46:51;;;;;;;;;;;;;;;;;;4947256;29;19965;-91
2022/10/07 00:49:16;;;;;;;;;;;;;;;;;;4900758;29;19918;-90
2022/10/07 00:51:42;;;;;;;;;;;;;;;;;;4905085;29;19938;-92
2022/10/07 00:54:07;;;;;;;;;;;;;;;;;;4900686;29;19924;-91
2022/10/07 00:56:33;;;;;;;;;;;;;;;;;;4899521;29;19948;-91
2022/10/07 00:58:59;;;;;;;;;;;;;;;;;;4918942;29;19949;-91
2022/10/07 01:01:25;;;;;;;;;;;;;;;;;;4930699;29;19915;-91
2022/10/07 01:03:50;;;;;;;;;;;;;;;;;;4912227;29;20260;-92
2022/10/07 01:06:16;;;;;;;;;;;;;;;;;;4919060;29;19915;-93
2022/10/07 01:08:41;;;;;;;;;;;;;;;;;;4923130;29;19911;-91
2022/10/07 01:11:12;;;;;;;;;;;;;;;;;;4936001;29;19982;-92
2022/10/07 01:13:38;;;;;;;;;;;;;;;;;;4912809;29;19954;-93
2022/10/07 01:16:04;;;;;;;;;;;;;;;;;;4890470;29;19926;-92
2022/10/07 01:18:30;;;;;;;;;;;;;;;;;;4890695;29;19912;-92
2022/10/07 01:20:55;;;;;;;;;;;;;;;;;;4889741;29;19970;-92
2022/10/07 01:23:21;;;;;;;;;;;;;;;;;;4891061;29;19915;-92
2022/10/07 01:25:46;;;;;;;;;;;;;;;;;;4893860;29;20382;-92
2022/10/07 01:28:11;;;;;;;;;;;;;;;;;;4892484;29;19947;-91
2022/10/07 01:30:37;;;;;;;;;;;;;;;;;;4895011;29;19914;-91
2022/10/07 01:33:03;;;;;;;;;;;;;;;;;;4924164;29;19919;-93
2022/10/07 01:35:30;;;;;;;;;;;;;;;;;;4895364;29;19936;-93
2022/10/07 01:37:55;;;;;;;;;;;;;;;;;;4895664;29;19954;-92
2022/10/07 01:40:20;;;;;;;;;;;;;;;;;;4892213;29;20283;-93
2022/10/07 01:42:48;;;;;;;;;;;;;;;;;;4891908;29;19986;-93
2022/10/07 01:45:15;;;;;;;;;;;;;;;;;;4895982;29;19942;-93
2022/10/07 01:47:41;;;;;;;;;;;;;;;;;;4902982;29;19915;-92
2022/10/07 01:50:07;;;;;;;;;;;;;;;;;;4913891;29;19926;-91
2022/10/07 01:52:32;;;;;;;;;;;;;;;;;;4917025;29;19915;-93
2022/10/07 01:54:57;;;;;;;;;;;;;;;;;;4931256;29;19915;-95
2022/10/07 01:57:23;;;;;;;;;;;;;;;;;;4916953;29;19926;-93
2022/10/07 01:59:50;;;;;;;;;;;;;;;;;;4933703;29;19974;-93
2022/10/07 02:02:15;;;;;;;;;;;;;;;;;;4930495;29;19922;-93
2022/10/07 02:04:41;;;;;;;;;;;;;;;;;;4912670;29;20271;-93
2022/10/07 02:07:06;;;;;;;;;;;;;;;;;;4900979;29;19918;-94
2022/10/07 02:09:32;;;;;;;;;;;;;;;;;;4901633;29;19919;-94
2022/10/07 02:11:57;;;;;;;;;;;;;;;;;;4895427;29;19943;-94
2022/10/07 02:14:23;;;;;;;;;;;;;;;;;;4895030;29;19919;-90
2022/10/07 02:16:49;;;;;;;;;;;;;;;;;;4892895;29;19915;-93
2022/10/07 02:19:14;;;;;;;;;;;;;;;;;;4937449;29;20302;-91
2022/10/07 02:21:40;;;;;;;;;;;;;;;;;;4886642;29;20369;-92
2022/10/07 02:24:05;;;;;;;;;;;;;;;;;;4891610;29;19915;-92
2022/10/07 02:26:30;;;;;;;;;;;;;;;;;;4894500;29;19915;-92
2022/10/07 02:28:56;;;;;;;;;;;;;;;;;;4895613;29;19922;-93
2022/10/07 02:31:22;;;;;;;;;;;;;;;;;;4899612;29;20366;-92
2022/10/07 02:33:49;;;;;;;;;;;;;;;;;;4904958;29;19914;-91
2022/10/07 02:36:15;;;;;;;;;;;;;;;;;;4908831;29;19914;-92
2022/10/07 02:38:41;;;;;;;;;;;;;;;;;;4894726;29;19922;-93
2022/10/07 02:41:09;;;;;;;;;;;;;;;;;;4894884;29;20338;-94
2022/10/07 02:43:35;;;;;;;;;;;;;;;;;;4895836;29;20006;-93
2022/10/07 02:46:00;;;;;;;;;;;;;;;;;;4892967;29;19959;-93
2022/10/07 02:48:28;;;;;;;;;;;;;;;;;;4907490;29;19934;-93
2022/10/07 02:50:55;;;;;;;;;;;;;;;;;;4892718;29;19931;-92
2022/10/07 02:53:20;;;;;;;;;;;;;;;;;;4892843;29;19922;-93
2022/10/07 02:55:45;;;;;;;;;;;;;;;;;;4892751;29;19911;-93
2022/10/07 02:58:13;;;;;;;;;;;;;;;;;;4910962;29;20420;-93
2022/10/07 03:00:38;;;;;;;;;;;;;;;;;;4926963;29;19990;-93
2022/10/07 03:03:04;;;;;;;;;;;;;;;;;;4902714;29;19915;-93
2022/10/07 03:05:50;;;;;;;;;;;;;;;;;;4894641;29;20381;-93
2022/10/07 03:08:15;;;;;;;;;;;;;;;;;;4891018;29;19915;-93
2022/10/07 03:10:41;;;;;;;;;;;;;;;;;;4890488;29;20021;-94
2022/10/07 03:13:08;;;;;;;;;;;;;;;;;;4891619;29;20386;-93
2022/10/07 03:15:37;;;;;;;;;;;;;;;;;;4883886;29;19915;-93
2022/10/07 03:18:03;;;;;;;;;;;;;;;;;;4889213;29;19927;-94
2022/10/07 03:20:31;;;;;;;;;;;;;;;;;;4888351;29;19915;-92
2022/10/07 03:22:57;;;;;;;;;;;;;;;;;;4887595;29;19923;-91
2022/10/07 03:25:22;;;;;;;;;;;;;;;;;;4887071;29;19916;-92
2022/10/07 03:27:48;;;;;;;;;;;;;;;;;;4889773;29;20014;-92
2022/10/07 03:30:13;;;;;;;;;;;;;;;;;;4892824;29;19922;-93
2022/10/07 03:32:40;;;;;;;;;;;;;;;;;;4900210;29;20026;-92
2022/10/07 03:35:06;;;;;;;;;;;;;;;;;;4919183;29;19914;-92
2022/10/07 03:37:32;;;;;;;;;;;;;;;;;;4895830;29;20136;-92
2022/10/07 03:39:58;;;;;;;;;;;;;;;;;;4907034;29;19915;-92
2022/10/07 03:42:23;;;;;;;;;;;;;;;;;;4920894;29;20406;-91
2022/10/07 03:44:49;;;;;;;;;;;;;;;;;;4911235;29;19915;-93
2022/10/07 03:47:16;;;;;;;;;;;;;;;;;;4892570;29;19915;-93
2022/10/07 03:49:41;;;;;;;;;;;;;;;;;;4911886;29;19930;-94
2022/10/07 03:52:07;;;;;;;;;;;;;;;;;;4897112;29;19915;-94
2022/10/07 03:54:33;;;;;;;;;;;;;;;;;;4899400;29;19903;-92
2022/10/07 03:56:58;;;;;;;;;;;;;;;;;;4920190;29;19991;-94
2022/10/07 03:59:24;;;;;;;;;;;;;;;;;;4901770;29;19910;-92
2022/10/07 04:01:49;;;;;;;;;;;;;;;;;;4904744;29;19915;-90
2022/10/07 04:04:16;;;;;;;;;;;;;;;;;;4903530;29;20015;-91
2022/10/07 04:06:42;;;;;;;;;;;;;;;;;;4904059;29;19915;-91
2022/10/07 04:09:10;;;;;;;;;;;;;;;;;;4885116;29;19931;-92
2022/10/07 04:11:39;;;;;;;;;;;;;;;;;;4891383;29;19965;-91
2022/10/07 04:14:04;;;;;;;;;;;;;;;;;;4921302;29;19903;-92
2022/10/07 04:16:30;;;;;;;;;;;;;;;;;;4882063;29;19966;-94
2022/10/07 04:18:55;;;;;;;;;;;;;;;;;;4879152;29;19916;-94
2022/10/07 04:21:21;;;;;;;;;;;;;;;;;;4885813;29;20112;-94
2022/10/07 04:23:47;;;;;;;;;;;;;;;;;;4893038;29;19915;-93
2022/10/07 04:26:12;;;;;;;;;;;;;;;;;;4892329;29;19926;-93
2022/10/07 04:28:41;;;;;;;;;;;;;;;;;;4893033;29;19921;-91
2022/10/07 04:31:10;;;;;;;;;;;;;;;;;;4896033;29;19919;-94
2022/10/07 04:33:42;;;;;;;;;;;;;;;;;;4914542;29;19956;-94
2022/10/07 04:36:14;;;;;;;;;;;;;;;;;;4893373;29;19926;-92
2022/10/07 04:38:46;;;;;;;;;;;;;;;;;;4921941;29;19903;-91
2022/10/07 04:41:11;;;;;;;;;;;;;;;;;;4917555;29;19974;-91
2022/10/07 04:43:38;;;;;;;;;;;;;;;;;;4918199;29;19938;-92
2022/10/07 04:46:07;;;;;;;;;;;;;;;;;;4918272;29;19923;-91
2022/10/07 04:48:35;;;;;;;;;;;;;;;;;;4919452;29;19962;-93
2022/10/07 04:51:01;;;;;;;;;;;;;;;;;;4923807;29;19974;-92
2022/10/07 04:53:26;;;;;;;;;;;;;;;;;;4918814;29;19926;-93
2022/10/07 04:55:52;;;;;;;;;;;;;;;;;;4913839;29;19971;-92
2022/10/07 04:58:19;;;;;;;;;;;;;;;;;;4897814;29;20091;-90
2022/10/07 05:00:45;;;;;;;;;;;;;;;;;;4908983;29;20226;-90
2022/10/07 05:03:10;;;;;;;;;;;;;;;;;;4925299;29;19911;-92
2022/10/07 05:05:38;;;;;;;;;;;;;;;;;;4926428;29;19939;-90
2022/10/07 05:08:03;;;;;;;;;;;;;;;;;;4898002;29;20001;-92
2022/10/07 05:10:28;;;;;;;;;;;;;;;;;;4895741;29;19964;-90
2022/10/07 05:12:54;;;;;;;;;;;;;;;;;;4886752;29;19967;-90
2022/10/07 05:15:20;;;;;;;;;;;;;;;;;;4893703;29;20409;-90
2022/10/07 05:17:45;;;;;;;;;;;;;;;;;;4906613;29;20298;-89
2022/10/07 05:20:11;;;;;;;;;;;;;;;;;;4937774;29;19969;-90
2022/10/07 05:22:37;;;;;;;;;;;;;;;;;;4891164;29;19996;-92
2022/10/07 05:25:02;;;;;;;;;;;;;;;;;;4892149;29;19914;-92
2022/10/07 05:27:28;;;;;;;;;;;;;;;;;;4908354;29;19914;-92
2022/10/07 05:29:54;;;;;;;;;;;;;;;;;;4893672;29;19930;-92
2022/10/07 05:32:20;;;;;;;;;;;;;;;;;;4893679;29;19915;-91
2022/10/07 05:34:45;;;;;;;;;;;;;;;;;;4890549;29;20366;-90
2022/10/07 05:37:11;;;;;;;;;;;;;;;;;;4891066;29;20002;-93
2022/10/07 05:39:37;;;;;;;;;;;;;;;;;;4942373;29;19914;-89
2022/10/07 05:42:08;;;;;;;;;;;;;;;;;;4914494;29;20266;-92
2022/10/07 05:44:40;;;;;;;;;;;;;;;;;;4899718;29;20371;-92
2022/10/07 05:47:05;;;;;;;;;;;;;;;;;;4890029;29;19946;-92
2022/10/07 05:49:31;;;;;;;;;;;;;;;;;;4901076;29;19919;-92
2022/10/07 05:51:57;;;;;;;;;;;;;;;;;;4898217;29;20014;-91
2022/10/07 05:54:23;;;;;;;;;;;;;;;;;;4895399;29;20339;-91
2022/10/07 05:56:48;;;;;;;;;;;;;;;;;;4894441;29;20340;-91
2022/10/07 05:59:15;;;;;;;;;;;;;;;;;;4925573;29;19926;-91
2022/10/07 06:01:42;;;;;;;;;;;;;;;;;;4900718;29;19982;-92
2022/10/07 06:04:12;;;;;;;;;;;;;;;;;;4902419;29;19922;-92
2022/10/07 06:06:40;;;;;;;;;;;;;;;;;;4895396;29;19915;-91
2022/10/07 06:14:38;;;;;;;;;;;;;;;;;;4911826;29;19915;-92
2022/10/07 06:17:05;;;;;;;;;;;;;;;;;;4895702;29;19915;-92
2022/10/07 06:19:32;;;;;;;;;;;;;;;;;;4893950;29;21857;-91
2022/10/07 06:22:00;;;;;;;;;;;;;;;;;;4895548;29;20475;-91
2022/10/07 06:24:26;;;;;;;;;;;;;;;;;;4895411;29;19926;-92
2022/10/07 06:26:54;;;;;;;;;;;;;;;;;;4895139;29;19958;-92
2022/10/07 06:29:19;;;;;;;;;;;;;;;;;;4888314;29;19919;-90
2022/10/07 06:31:45;;;;;;;;;;;;;;;;;;4918986;29;19915;-90
2022/10/07 06:34:11;;;;;;;;;;;;;;;;;;4903078;29;20363;-90
2022/10/07 06:36:36;;;;;;;;;;;;;;;;;;4888343;29;20386;-90
2022/10/07 06:39:02;;;;;;;;;;;;;;;;;;4891144;29;19938;-91
2022/10/07 06:41:33;;;;;;;;;;;;;;;;;;4886779;29;19923;-91
2022/10/07 06:44:10;;;;;;;;;;;;;;;;;;4888995;29;19943;-89
2022/10/07 06:46:35;;;;;;;;;;;;;;;;;;4903427;29;19915;-90
2022/10/07 06:49:01;;;;;;;;;;;;;;;;;;4919968;29;19915;-91
2022/10/07 06:51:27;;;;;;;;;;;;;;;;;;4895751;29;19915;-90
2022/10/07 06:53:53;;;;;;;;;;;;;;;;;;4931603;29;19945;-92
2022/10/07 06:56:19;;;;;;;;;;;;;;;;;;4896497;29;19915;-92
2022/10/07 06:58:45;;;;;;;;;;;;;;;;;;4899789;29;19918;-92
2022/10/07 07:01:13;;;;;;;;;;;;;;;;;;4919927;29;19957;-93
2022/10/07 07:03:38;;;;;;;;;;;;;;;;;;4913191;29;19915;-92
2022/10/07 07:06:04;;;;;;;;;;;;;;;;;;4900737;29;19979;-90
2022/10/07 07:08:33;;;;;;;;;;;;;;;;;;4892302;29;19915;-92
2022/10/07 07:11:01;;;;;;;;;;;;;;;;;;4899368;29;19961;-91
2022/10/07 07:13:26;;;;;;;;;;;;;;;;;;4914458;29;20031;-90
2022/10/07 07:15:51;;;;;;;;;;;;;;;;;;4913938;29;19922;-93
2022/10/07 07:18:17;;;;;;;;;;;;;;;;;;4896291;29;20405;-90
2022/10/07 07:20:43;;;;;;;;;;;;;;;;;;4911601;29;19934;-92
2022/10/07 07:23:09;;;;;;;;;;;;;;;;;;4892915;29;20275;-91
2022/10/07 07:25:35;;;;;;;;;;;;;;;;;;4891971;29;19921;-90
2022/10/07 07:28:01;;;;;;;;;;;;;;;;;;4894699;29;19915;-92
2022/10/07 07:30:26;;;;;;;;;;;;;;;;;;4892149;29;20315;-92
2022/10/07 07:32:54;;;;;;;;;;;;;;;;;;4898998;29;19915;-90
2022/10/07 07:35:19;;;;;;;;;;;;;;;;;;4891837;29;19915;-90
2022/10/07 07:37:45;;;;;;;;;;;;;;;;;;4907373;29;19914;-90
2022/10/07 07:40:10;;;;;;;;;;;;;;;;;;4895305;29;19914;-91
2022/10/07 07:42:36;;;;;;;;;;;;;;;;;;4908360;29;19922;-91
2022/10/07 07:45:02;;;;;;;;;;;;;;;;;;4893284;29;20394;-90
2022/10/07 07:47:28;;;;;;;;;;;;;;;;;;4888385;29;19931;-89
2022/10/07 07:49:54;;;;;;;;;;;;;;;;;;4905652;29;19915;-89
2022/10/07 08:00:33;;;;;;;;;;;;;;;;;;5454844;23;19927;-92
2022/10/07 08:03:02;;;;;;;;;;;;;;;;;;4944283;29;20194;-92
2022/10/07 08:05:28;;;;;;;;;;;;;;;;;;4910073;29;19915;-92
2022/10/07 08:07:56;;;;;;;;;;;;;;;;;;4943904;29;19924;-90
2022/10/07 08:10:23;;;;;;;;;;;;;;;;;;4937981;29;19918;-89
2022/10/07 08:12:49;;;;;;;;;;;;;;;;;;4945592;29;20382;-91
2022/10/07 08:15:14;;;;;;;;;;;;;;;;;;4926597;29;19977;-92
2022/10/07 08:17:40;;;;;;;;;;;;;;;;;;4937966;29;19962;-91
2022/10/07 08:20:07;;;;;;;;;;;;;;;;;;4905425;29;19969;-91
2022/10/07 08:22:32;;;;;;;;;;;;;;;;;;4898699;29;20514;-91
2022/10/07 08:24:59;;;;;;;;;;;;;;;;;;4911777;29;19946;-88
2022/10/07 08:27:25;;;;;;;;;;;;;;;;;;4942235;29;19946;-90
2022/10/07 08:29:51;;;;;;;;;;;;;;;;;;4942868;29;19918;-92
2022/10/07 08:32:16;;;;;;;;;;;;;;;;;;4942354;29;20421;-89
2022/10/07 08:34:41;;;;;;;;;;;;;;;;;;4944786;29;19914;-87
2022/10/07 08:37:06;;;;;;;;;;;;;;;;;;4927481;29;20001;-87
2022/10/07 08:39:32;;;;;;;;;;;;;;;;;;4942459;29;19960;-85
2022/10/07 08:41:57;;;;;;;;;;;;;;;;;;4926043;29;19942;-87
2022/10/07 08:44:23;;;;;;;;;;;;;;;;;;4928237;29;19972;-82
2022/10/07 08:46:48;;;;;;;;;;;;;;;;;;4906660;29;19969;-80
2022/10/07 08:49:14;;;;;;;;;;;;;;;;;;4938673;29;19969;-81
2022/10/07 08:51:39;;;;;;;;;;;;;;;;;;4938049;29;20379;-79
2022/10/07 08:54:04;;;;;;;;;;;;;;;;;;4921182;29;20375;-82
2022/10/07 08:56:30;;;;;;;;;;;;;;;;;;4920894;29;19978;-80
2022/10/07 08:58:55;;;;;;;;;;;;;;;;;;4924962;29;19915;-78
2022/10/07 09:01:21;;;;;;;;;;;;;;;;;;4937570;29;19919;-78
2022/10/07 09:03:50;;;;;;;;;;;;;;;;;;4937573;29;19915;-81
2022/10/07 09:06:15;;;;;;;;;;;;;;;;;;4937818;29;19918;-78
2022/10/07 09:08:41;;;;;;;;;;;;;;;;;;4937787;29;19921;-79
2022/10/07 09:11:15;;;;;;;;;;;;;;;;;;4937475;29;19945;-80
2022/10/07 09:13:41;;;;;;;;;;;;;;;;;;4937454;29;19915;-79
2022/10/07 09:16:11;;;;;;;;;;;;;;;;;;4930140;29;19921;-78
2022/10/07 09:18:38;;;;;;;;;;;;;;;;;;4956362;29;19915;-79
2022/10/07 09:21:03;;;;;;;;;;;;;;;;;;4956587;29;20123;-80
2022/10/07 09:23:28;;;;;;;;;;;;;;;;;;4956412;29;20392;-80
2022/10/07 09:25:54;;;;;;;;;;;;;;;;;;4956494;29;19914;-79
2022/10/07 09:28:19;;;;;;;;;;;;;;;;;;4956318;29;19914;-80
2022/10/07 09:30:45;;;;;;;;;;;;;;;;;;4956318;29;19973;-80
2022/10/07 09:33:10;;;;;;;;;;;;;;;;;;4948669;28;19922;-82
2022/10/07 09:35:37;;;;;;;;;;;;;;;;;;4905089;29;19922;-81
2022/10/07 09:38:02;;;;;;;;;;;;;;;;;;4937390;29;19915;-80
2022/10/07 09:40:27;;;;;;;;;;;;;;;;;;4920092;29;19919;-79
2022/10/07 09:42:53;;;;;;;;;;;;;;;;;;4937131;29;19987;-81
2022/10/07 09:45:18;;;;;;;;;;;;;;;;;;4937238;29;19915;-81
2022/10/07 09:47:44;;;;;;;;;;;;;;;;;;4925024;29;19921;-82
2022/10/07 09:50:09;;;;;;;;;;;;;;;;;;4936336;29;19915;-81
2022/10/07 09:52:34;;;;;;;;;;;;;;;;;;4955846;29;19919;-82
2022/10/07 09:55:00;;;;;;;;;;;;;;;;;;4938814;29;19950;-78
2022/10/07 09:57:25;;;;;;;;;;;;;;;;;;4955977;29;19915;-80
2022/10/07 09:59:51;;;;;;;;;;;;;;;;;;4955985;29;19922;-78
2022/10/07 10:02:17;;;;;;;;;;;;;;;;;;4938603;29;19922;-79
2022/10/07 10:04:42;;;;;;;;;;;;;;;;;;4945870;29;19914;-92
2022/10/07 10:07:07;;;;;;;;;;;;;;;;;;4940142;29;19915;-87
2022/10/07 10:09:33;;;;;;;;;;;;;;;;;;4931996;29;19919;-85
2022/10/07 10:11:59;;;;;;;;;;;;;;;;;;4944209;29;19922;-78
2022/10/07 10:14:24;;;;;;;;;;;;;;;;;;4926827;29;20282;-82
2022/10/07 10:16:49;;;;;;;;;;;;;;;;;;4920476;29;19976;-83
2022/10/07 10:19:15;;;;;;;;;;;;;;;;;;4915992;29;20061;-79
2022/10/07 10:21:40;;;;;;;;;;;;;;;;;;4939388;29;20018;-79
2022/10/07 10:24:06;;;;;;;;;;;;;;;;;;4916003;29;19918;-80
2022/10/07 10:26:32;;;;;;;;;;;;;;;;;;4918774;29;20506;-80
2022/10/07 10:28:58;;;;;;;;;;;;;;;;;;4946452;29;19965;-79
2022/10/07 10:31:23;;;;;;;;;;;;;;;;;;4924031;29;19919;-80
2022/10/07 10:33:48;;;;;;;;;;;;;;;;;;4939846;29;20394;-80
2022/10/07 10:36:14;;;;;;;;;;;;;;;;;;4940712;29;20001;-80
2022/10/07 10:38:44;;;;;;;;;;;;;;;;;;4939337;28;19930;-90
2022/10/07 10:41:09;;;;;;;;;;;;;;;;;;4923244;29;19966;-89
2022/10/07 10:43:35;;;;;;;;;;;;;;;;;;4927865;29;19915;-90
2022/10/07 10:46:00;;;;;;;;;;;;;;;;;;4933584;29;19918;-89
2022/10/07 10:48:27;;;;;;;;;;;;;;;;;;4921756;29;19926;-87
2022/10/07 10:50:56;;;;;;;;;;;;;;;;;;4904647;29;19933;-89
2022/10/07 10:53:22;;;;;;;;;;;;;;;;;;4932673;29;19937;-87
2022/10/07 10:55:47;;;;;;;;;;;;;;;;;;4952133;29;19914;-87
2022/10/07 10:58:14;;;;;;;;;;;;;;;;;;4934839;29;19990;-87
2022/10/07 11:00:40;;;;;;;;;;;;;;;;;;4949581;29;19919;-90
2022/10/07 11:03:05;;;;;;;;;;;;;;;;;;4927066;29;19918;-87
2022/10/07 11:05:31;;;;;;;;;;;;;;;;;;4937309;29;19922;-84
2022/10/07 11:07:56;;;;;;;;;;;;;;;;;;4922771;29;20298;-86
2022/10/07 11:10:22;;;;;;;;;;;;;;;;;;4920532;29;19989;-86
2022/10/07 11:12:47;;;;;;;;;;;;;;;;;;4937700;29;19914;-87
2022/10/07 11:15:12;;;;;;;;;;;;;;;;;;4939291;29;19915;-87
2022/10/07 11:17:38;;;;;;;;;;;;;;;;;;4942272;29;19922;-86
2022/10/07 11:20:04;;;;;;;;;;;;;;;;;;4906150;29;19961;-86
2022/10/07 11:22:31;;;;;;;;;;;;;;;;;;4926811;29;19947;-85
2022/10/07 11:24:59;;;;;;;;;;;;;;;;;;4913010;29;19914;-86
2022/10/07 11:27:24;;;;;;;;;;;;;;;;;;4947444;29;19915;-88
2022/10/07 11:29:50;;;;;;;;;;;;;;;;;;4931232;29;19950;-86
2022/10/07 11:32:15;;;;;;;;;;;;;;;;;;4932085;29;19962;-87
2022/10/07 11:34:40;;;;;;;;;;;;;;;;;;4962047;29;19933;-87
2022/10/07 11:37:06;;;;;;;;;;;;;;;;;;4963489;29;19930;-87
2022/10/07 11:39:31;;;;;;;;;;;;;;;;;;4958395;29;20314;-86
2022/10/07 11:41:57;;;;;;;;;;;;;;;;;;4922327;29;19962;-86
2022/10/07 11:44:22;;;;;;;;;;;;;;;;;;4922193;29;19919;-86
2022/10/07 11:46:48;;;;;;;;;;;;;;;;;;4939223;29;19921;-86
2022/10/07 11:49:13;;;;;;;;;;;;;;;;;;4954182;29;19952;-85
2022/10/07 11:51:38;;;;;;;;;;;;;;;;;;4937226;29;19921;-86
2022/10/07 11:54:05;;;;;;;;;;;;;;;;;;4918282;29;20286;-87
2022/10/07 11:56:30;;;;;;;;;;;;;;;;;;4937985;29;19914;-85
2022/10/07 11:58:55;;;;;;;;;;;;;;;;;;4922171;29;19926;-86
2022/10/07 12:01:21;;;;;;;;;;;;;;;;;;4923688;29;19925;-86
2022/10/07 12:03:46;;;;;;;;;;;;;;;;;;4905156;29;19911;-85
2022/10/07 12:06:12;;;;;;;;;;;;;;;;;;4921454;29;19919;-87
2022/10/07 12:08:37;;;;;;;;;;;;;;;;;;4955992;29;19914;-86
2022/10/07 12:11:03;;;;;;;;;;;;;;;;;;4923970;29;20325;-85
2022/10/07 12:13:28;;;;;;;;;;;;;;;;;;4958947;29;19914;-86
2022/10/07 12:15:55;;;;;;;;;;;;;;;;;;4958629;29;20008;-87
2022/10/07 12:18:21;;;;;;;;;;;;;;;;;;4941154;29;19914;-86
2022/10/07 12:20:46;;;;;;;;;;;;;;;;;;4926700;29;19914;-85
2022/10/07 12:23:12;;;;;;;;;;;;;;;;;;4942196;29;20307;-86
2022/10/07 12:25:37;;;;;;;;;;;;;;;;;;4945105;29;20005;-85
2022/10/07 12:28:03;;;;;;;;;;;;;;;;;;4920904;29;19927;-88
2022/10/07 12:30:29;;;;;;;;;;;;;;;;;;4921262;29;20362;-86
2022/10/07 12:32:55;;;;;;;;;;;;;;;;;;4938095;29;19921;-86
2022/10/07 12:35:22;;;;;;;;;;;;;;;;;;4923262;29;19970;-85
2022/10/07 12:37:49;;;;;;;;;;;;;;;;;;4939868;29;19915;-84
2022/10/07 12:40:14;;;;;;;;;;;;;;;;;;4941718;29;19961;-85
2022/10/07 12:42:40;;;;;;;;;;;;;;;;;;4926997;29;20371;-85
2022/10/07 12:45:07;;;;;;;;;;;;;;;;;;4891973;29;19919;-86
2022/10/07 12:47:33;;;;;;;;;;;;;;;;;;4921922;29;20017;-85
2022/10/07 12:49:58;;;;;;;;;;;;;;;;;;4921620;29;20028;-87
2022/10/07 12:52:25;;;;;;;;;;;;;;;;;;4920293;29;19922;-86
2022/10/07 12:54:51;;;;;;;;;;;;;;;;;;4920305;29;19923;-86
2022/10/07 12:57:16;;;;;;;;;;;;;;;;;;4920744;29;20438;-86
2022/10/07 12:59:48;;;;;;;;;;;;;;;;;;4870356;29;1794274;-87
2022/10/07 13:02:13;;;;;;;;;;;;;;;;;;4926336;29;19915;-89
2022/10/07 13:04:39;;;;;;;;;;;;;;;;;;4923122;29;20294;-86
2022/10/07 13:07:07;;;;;;;;;;;;;;;;;;4926711;29;19914;-88
2022/10/07 13:09:33;;;;;;;;;;;;;;;;;;4897374;29;20351;-88
2022/10/07 13:11:58;;;;;;;;;;;;;;;;;;4926088;29;19919;-85
2022/10/07 13:14:24;;;;;;;;;;;;;;;;;;4936487;29;19918;-86
2022/10/07 13:16:49;;;;;;;;;;;;;;;;;;4918387;29;19919;-85
2022/10/07 13:19:14;;;;;;;;;;;;;;;;;;4949374;29;19914;-86
2022/10/07 13:21:40;;;;;;;;;;;;;;;;;;4942427;29;20288;-87
2022/10/07 13:24:05;;;;;;;;;;;;;;;;;;4919455;29;19974;-87
2022/10/07 13:26:31;;;;;;;;;;;;;;;;;;4909632;29;19915;-86
2022/10/07 13:28:57;;;;;;;;;;;;;;;;;;4929900;29;19957;-85
2022/10/07 13:31:22;;;;;;;;;;;;;;;;;;4927486;29;20203;-86
2022/10/07 13:33:48;;;;;;;;;;;;;;;;;;4935803;29;19914;-85
2022/10/07 13:36:14;;;;;;;;;;;;;;;;;;4907386;29;19911;-86
2022/10/07 13:38:40;;;;;;;;;;;;;;;;;;4933089;29;19915;-86
2022/10/07 13:41:05;;;;;;;;;;;;;;;;;;4929789;29;20352;-86
2022/10/07 13:43:30;;;;;;;;;;;;;;;;;;4944496;29;19915;-86
2022/10/07 13:45:56;;;;;;;;;;;;;;;;;;4933259;29;20002;-87
2022/10/07 13:48:21;;;;;;;;;;;;;;;;;;4927568;29;19946;-87
2022/10/07 13:50:49;;;;;;;;;;;;;;;;;;4915392;29;19919;-86
2022/10/07 13:53:14;;;;;;;;;;;;;;;;;;4934028;29;20413;-85
2022/10/07 13:55:40;;;;;;;;;;;;;;;;;;4951471;29;19915;-85
2022/10/07 13:58:05;;;;;;;;;;;;;;;;;;4920823;29;19925;-86
2022/10/07 14:00:31;;;;;;;;;;;;;;;;;;4950790;23;19974;-77
2022/10/07 14:02:56;;;;;;;;;;;;;;;;;;4948428;29;20326;-78
2022/10/07 14:05:22;;;;;;;;;;;;;;;;;;4928705;29;20223;-77
2022/10/07 14:07:48;;;;;;;;;;;;;;;;;;4954823;29;19915;-77
2022/10/07 14:10:13;;;;;;;;;;;;;;;;;;4915751;29;20279;-77
2022/10/07 14:12:39;;;;;;;;;;;;;;;;;;4887716;29;19953;-76
2022/10/07 14:15:05;;;;;;;;;;;;;;;;;;4911191;29;19919;-77
2022/10/07 14:17:30;;;;;;;;;;;;;;;;;;4927340;29;19934;-78
2022/10/07 14:19:56;;;;;;;;;;;;;;;;;;4904095;29;19915;-77
2022/10/07 14:22:21;;;;;;;;;;;;;;;;;;4915758;29;19922;-79
2022/10/07 14:24:47;;;;;;;;;;;;;;;;;;4913593;29;20287;-79
2022/10/07 14:27:12;;;;;;;;;;;;;;;;;;4926087;29;19918;-78
2022/10/07 14:29:38;;;;;;;;;;;;;;;;;;4920999;29;19919;-78
2022/10/07 14:37:32;;;;;;;;;;;;;;;;;;4910344;29;19919;-78
2022/10/07 14:39:58;;;;;;;;;;;;;;;;;;4902318;29;19919;-78
2022/10/07 14:42:24;;;;;;;;;;;;;;;;;;4936057;29;19943;-79
2022/10/07 14:44:49;;;;;;;;;;;;;;;;;;4937020;29;19936;-79
2022/10/07 14:47:15;;;;;;;;;;;;;;;;;;4905508;29;19957;-78
2022/10/07 14:49:41;;;;;;;;;;;;;;;;;;4893479;29;19919;-78
2022/10/07 14:52:06;;;;;;;;;;;;;;;;;;4917457;29;19986;-78
2022/10/07 14:54:32;;;;;;;;;;;;;;;;;;4903111;29;19915;-79
2022/10/07 14:56:58;;;;;;;;;;;;;;;;;;4912547;29;19915;-78
2022/10/07 14:59:23;;;;;;;;;;;;;;;;;;4926564;29;20018;-77
2022/10/07 15:01:49;;;;;;;;;;;;;;;;;;4890523;29;19919;-77
2022/10/07 15:04:15;;;;;;;;;;;;;;;;;;4932205;29;19915;-79
2022/10/07 15:06:40;;;;;;;;;;;;;;;;;;4921764;29;19911;-78
2022/10/07 15:09:06;;;;;;;;;;;;;;;;;;4896777;29;19970;-78
2022/10/07 15:11:31;;;;;;;;;;;;;;;;;;4929113;29;19937;-81
2022/10/07 15:13:57;;;;;;;;;;;;;;;;;;4907673;29;19915;-81
2022/10/07 15:16:23;;;;;;;;;;;;;;;;;;4906202;29;19973;-80
2022/10/07 15:18:49;;;;;;;;;;;;;;;;;;4902286;29;20038;-80
2022/10/07 15:21:14;;;;;;;;;;;;;;;;;;4899006;29;19915;-82
2022/10/07 15:23:41;;;;;;;;;;;;;;;;;;4916847;29;19926;-81
2022/10/07 15:26:08;;;;;;;;;;;;;;;;;;4886745;29;19916;-81
2022/10/07 15:28:34;;;;;;;;;;;;;;;;;;4917102;29;19915;-81
2022/10/07 15:31:00;;;;;;;;;;;;;;;;;;4907993;29;19971;-81
2022/10/07 15:33:26;;;;;;;;;;;;;;;;;;4913295;29;19993;-84
2022/10/07 15:35:52;;;;;;;;;;;;;;;;;;4913331;29;20378;-82
2022/10/07 15:38:17;;;;;;;;;;;;;;;;;;4933962;29;19914;-82
2022/10/07 15:40:43;;;;;;;;;;;;;;;;;;4891802;29;19970;-80
2022/10/07 15:43:08;;;;;;;;;;;;;;;;;;4902881;29;19915;-81
2022/10/07 15:45:34;;;;;;;;;;;;;;;;;;4884424;29;20001;-81
2022/10/07 15:48:00;;;;;;;;;;;;;;;;;;4931020;29;19919;-83
2022/10/07 15:50:26;;;;;;;;;;;;;;;;;;4916854;29;19919;-87
2022/10/07 15:52:53;;;;;;;;;;;;;;;;;;4891179;29;19914;-77
2022/10/07 15:55:19;;;;;;;;;;;;;;;;;;4892866;29;20005;-80
2022/10/07 15:57:44;;;;;;;;;;;;;;;;;;4895675;29;20051;-81
2022/10/07 16:00:10;;;;;;;;;;;;;;;;;;4885749;29;20471;-80
2022/10/07 16:02:38;;;;;;;;;;;;;;;;;;4912787;29;19993;-80
2022/10/07 16:05:04;;;;;;;;;;;;;;;;;;4890169;29;20009;-80
2022/10/07 16:07:29;;;;;;;;;;;;;;;;;;4906615;29;19915;-80
2022/10/07 16:09:55;;;;;;;;;;;;;;;;;;4896071;29;19918;-79
2022/10/07 16:12:20;;;;;;;;;;;;;;;;;;4885482;29;19919;-77
2022/10/07 16:14:46;;;;;;;;;;;;;;;;;;4911409;29;19916;-77
2022/10/07 16:17:13;;;;;;;;;;;;;;;;;;4922902;29;20275;-79
2022/10/07 16:19:38;;;;;;;;;;;;;;;;;;4904842;29;19915;-78
2022/10/07 16:22:04;;;;;;;;;;;;;;;;;;4897272;29;20346;-78
2022/10/07 16:24:30;;;;;;;;;;;;;;;;;;4917447;29;20291;-78
2022/10/07 16:26:56;;;;;;;;;;;;;;;;;;4895136;29;19915;-79
2022/10/07 16:32:09;;;;;;;;;;;;;;;;;;4897771;29;19919;-79
2022/10/07 16:34:35;;;;;;;;;;;;;;;;;;4917930;29;19918;-78
2022/10/07 16:37:00;;;;;;;;;;;;;;;;;;4909779;29;20351;-78
2022/10/07 16:39:26;;;;;;;;;;;;;;;;;;4876954;29;20017;-79
2022/10/07 16:41:51;;;;;;;;;;;;;;;;;;4934048;29;19976;-87
2022/10/07 16:44:16;;;;;;;;;;;;;;;;;;4904258;29;20358;-76
2022/10/07 16:46:42;;;;;;;;;;;;;;;;;;4932775;29;20339;-76
2022/10/07 16:49:07;;;;;;;;;;;;;;;;;;4909018;29;20348;-77
2022/10/07 16:51:34;;;;;;;;;;;;;;;;;;4908696;29;20018;-78
2022/10/07 16:54:01;;;;;;;;;;;;;;;;;;4914112;29;19957;-78
2022/10/07 16:56:27;;;;;;;;;;;;;;;;;;4905978;29;19921;-78
2022/10/07 16:58:52;;;;;;;;;;;;;;;;;;4906848;29;20265;-78